Amboy, WA

1:45 AM PDT on October 21, 2014 (GMT -0700)
Rock Creek Area | Change Station
CLOSE
Current Station
Personal Weather Station
Location: Battle Ground, WA
Elevation: 420 ft
Nearby Weather Stations

Elev 420 ft 45.85 °N, 122.52 °W | Updated 1 minute ago

Overcast
Overcast
53.1 °F
Feels Like 53.1 °F
N
0.0
Wind Variable Wind from South
Gusts 7.0 mph

Today
High -- | Low -- °F
--% Chance of Precip.
Yesterday
High -- | Low -- °F
Precip. -- in
7:35 AM 6:13 PM
Waning Crescent, 6% visible
Pressure 29.87 in
Visibility 10.0 miles
Clouds Scattered Clouds 4400 ft
Overcast 6000 ft
Dew Point 53 °F
Humidity 100%
Rainfall 0.00 in
Snow Depth Not available.
UV 0.0 out of 12
Pollen .40 out of 12
Air Quality Not available.
Flu Activity Sporadic
METAR KSPB 210753Z AUTO 00000KT 10SM SCT044 OVC060 12/11 A2986 RMK AO2 SLP113 T01170106 401780089

More Conditions Fewer Conditions

Pressure 29.87 in
Visibility 10.0 miles
Clouds Scattered Clouds 4400 ft
Overcast 6000 ft
Dew Point 53 °F
Humidity 100%
Rainfall 0.00 in
Snow Depth Not available.
UV 0.0 out of 12
Pollen .40 out of 12
Air Quality Not available.
Flu Activity Sporadic
METAR KSPB 210753Z AUTO 00000KT 10SM SCT044 OVC060 12/11 A2986 RMK AO2 SLP113 T01170106 401780089

More Conditions Fewer Conditions

10-Day Weather Forecast

Almanac

Astronomy

Oct. 21, 2014 Rise Set
Actual Time 7:35 AM PDT 6:13 PM PDT
Civil Twilight 7:04 AM PDT 6:43 PM PDT
Nautical Twilight 6:29 AM PDT 7:18 PM PDT
Astronomical Twilight 5:55 AM PDT 7:52 PM PDT
Moon 5:17 AM PDT 5:15 PM PDT
Length of Visible Light 11h 39m
Length of Day
10h 38m
Tomorrow will be 3m 2s shorter.
Waning Crescent, 6% of the Moon is Illuminated
Today
Waning Crescent
Oct 23
New
Oct 30
First Quarter
Nov 6
Full
Nov 14
Last Quarter

Today's Extremes

State Highs State Lows

Community

WunderPhotos

Upload Photos

1,763,619 photos uploaded!

Nearby

Snow Depth

Station Depth Elevation
June Lake 0 in 3340 ft
Swift Creek 1 in 3770 ft
Spirit Lake 0 in 3120 ft
Spencer Meadow 0 in 3400 ft
Lone Pine 0 in 3800 ft

Earthquake Activity

City Distance Mag. Time & Date
No recent earthquake activity has been reported nearby.
Minimum magnitude displayed is 2.5.

Coastal Water Temperatures

Place Temperature
No Stations Reporting

Nearby Weather Stations